sensor_id;sensor_type;location;lat;lon;timestamp;P1;durP1;ratioP1;P2;durP2;ratioP2
27265;SDS011;14766;51.380;13.762;2024-01-16T00:01:09;4.70;;;2.20;;
27265;SDS011;14766;51.380;13.762;2024-01-16T00:03:38;3.55;;;2.20;;
27265;SDS011;14766;51.380;13.762;2024-01-16T00:06:05;7.88;;;2.58;;
27265;SDS011;14766;51.380;13.762;2024-01-16T00:08:34;5.15;;;2.80;;
27265;SDS011;14766;51.380;13.762;2024-01-16T00:11:12;3.60;;;1.60;;
27265;SDS011;14766;51.380;13.762;2024-01-16T00:13:42;5.75;;;2.20;;
27265;SDS011;14766;51.380;13.762;2024-01-16T00:16:11;3.78;;;1.75;;
27265;SDS011;14766;51.380;13.762;2024-01-16T00:18:38;3.22;;;1.35;;
27265;SDS011;14766;51.380;13.762;2024-01-16T00:21:06;4.65;;;2.22;;
27265;SDS011;14766;51.380;13.762;2024-01-16T00:23:33;2.67;;;1.45;;
27265;SDS011;14766;51.380;13.762;2024-01-16T00:26:02;5.97;;;1.52;;
27265;SDS011;14766;51.380;13.762;2024-01-16T00:28:31;7.45;;;2.30;;
27265;SDS011;14766;51.380;13.762;2024-01-16T00:30:58;3.95;;;1.70;;
27265;SDS011;14766;51.380;13.762;2024-01-16T00:33:25;3.22;;;1.60;;
27265;SDS011;14766;51.380;13.762;2024-01-16T00:35:54;5.40;;;2.00;;
27265;SDS011;14766;51.380;13.762;2024-01-16T00:38:21;3.03;;;1.50;;
27265;SDS011;14766;51.380;13.762;2024-01-16T00:40:51;6.18;;;1.73;;
27265;SDS011;14766;51.380;13.762;2024-01-16T00:43:19;6.55;;;1.85;;
27265;SDS011;14766;51.380;13.762;2024-01-16T00:45:48;4.85;;;1.95;;
27265;SDS011;14766;51.380;13.762;2024-01-16T00:48:15;5.55;;;1.60;;
27265;SDS011;14766;51.380;13.762;2024-01-16T00:50:42;5.38;;;2.13;;
27265;SDS011;14766;51.380;13.762;2024-01-16T00:53:10;3.72;;;1.67;;
27265;SDS011;14766;51.380;13.762;2024-01-16T00:55:37;7.30;;;2.15;;
27265;SDS011;14766;51.380;13.762;2024-01-16T00:58:04;6.70;;;1.90;;
27265;SDS011;14766;51.380;13.762;2024-01-16T01:00:31;7.43;;;1.70;;
27265;SDS011;14766;51.380;13.762;2024-01-16T01:03:00;4.40;;;1.48;;
27265;SDS011;14766;51.380;13.762;2024-01-16T01:05:27;6.18;;;1.92;;
27265;SDS011;14766;51.380;13.762;2024-01-16T01:07:58;3.50;;;1.73;;
27265;SDS011;14766;51.380;13.762;2024-01-16T01:10:28;4.45;;;1.60;;
27265;SDS011;14766;51.380;13.762;2024-01-16T01:12:55;3.78;;;1.80;;
27265;SDS011;14766;51.380;13.762;2024-01-16T01:15:22;4.22;;;1.75;;
27265;SDS011;14766;51.380;13.762;2024-01-16T01:17:49;2.92;;;1.63;;
27265;SDS011;14766;51.380;13.762;2024-01-16T01:20:18;3.88;;;1.50;;
27265;SDS011;14766;51.380;13.762;2024-01-16T01:22:46;5.68;;;1.80;;
27265;SDS011;14766;51.380;13.762;2024-01-16T01:25:13;4.50;;;2.08;;
27265;SDS011;14766;51.380;13.762;2024-01-16T01:27:40;5.15;;;2.35;;
27265;SDS011;14766;51.380;13.762;2024-01-16T01:30:07;6.95;;;2.20;;
27265;SDS011;14766;51.380;13.762;2024-01-16T01:32:38;5.45;;;2.28;;
27265;SDS011;14766;51.380;13.762;2024-01-16T01:35:06;5.32;;;2.22;;
27265;SDS011;14766;51.380;13.762;2024-01-16T01:37:33;4.82;;;2.20;;
27265;SDS011;14766;51.380;13.762;2024-01-16T01:40:02;4.55;;;2.17;;
27265;SDS011;14766;51.380;13.762;2024-01-16T01:42:31;6.95;;;2.83;;
27265;SDS011;14766;51.380;13.762;2024-01-16T01:45:04;6.93;;;3.13;;
27265;SDS011;14766;51.380;13.762;2024-01-16T01:47:31;4.57;;;2.70;;
27265;SDS011;14766;51.380;13.762;2024-01-16T01:49:59;5.40;;;2.60;;
27265;SDS011;14766;51.380;13.762;2024-01-16T01:52:27;4.63;;;2.63;;
27265;SDS011;14766;51.380;13.762;2024-01-16T01:54:55;6.93;;;2.50;;
27265;SDS011;14766;51.380;13.762;2024-01-16T01:57:22;6.75;;;2.70;;
27265;SDS011;14766;51.380;13.762;2024-01-16T01:59:49;7.05;;;2.40;;
27265;SDS011;14766;51.380;13.762;2024-01-16T02:02:18;4.78;;;2.78;;
27265;SDS011;14766;51.380;13.762;2024-01-16T02:04:46;6.07;;;3.00;;
27265;SDS011;14766;51.380;13.762;2024-01-16T02:07:14;5.70;;;2.90;;
27265;SDS011;14766;51.380;13.762;2024-01-16T02:09:42;7.00;;;2.75;;
27265;SDS011;14766;51.380;13.762;2024-01-16T02:12:10;6.28;;;2.95;;
27265;SDS011;14766;51.380;13.762;2024-01-16T02:14:37;5.57;;;3.20;;
27265;SDS011;14766;51.380;13.762;2024-01-16T02:17:07;5.60;;;2.50;;
27265;SDS011;14766;51.380;13.762;2024-01-16T02:19:34;4.63;;;2.65;;
27265;SDS011;14766;51.380;13.762;2024-01-16T02:22:03;4.00;;;2.83;;
27265;SDS011;14766;51.380;13.762;2024-01-16T02:24:33;4.05;;;2.72;;
27265;SDS011;14766;51.380;13.762;2024-01-16T02:27:01;6.47;;;3.17;;
27265;SDS011;14766;51.380;13.762;2024-01-16T02:29:29;5.80;;;2.92;;
27265;SDS011;14766;51.380;13.762;2024-01-16T02:31:56;5.90;;;3.22;;
27265;SDS011;14766;51.380;13.762;2024-01-16T02:34:23;6.47;;;3.20;;
27265;SDS011;14766;51.380;13.762;2024-01-16T02:36:54;8.20;;;3.22;;
27265;SDS011;14766;51.380;13.762;2024-01-16T02:39:23;8.55;;;3.15;;
27265;SDS011;14766;51.380;13.762;2024-01-16T02:41:51;6.13;;;2.83;;
27265;SDS011;14766;51.380;13.762;2024-01-16T02:44:18;5.45;;;2.67;;
27265;SDS011;14766;51.380;13.762;2024-01-16T02:46:45;6.97;;;2.60;;
27265;SDS011;14766;51.380;13.762;2024-01-16T02:49:15;5.82;;;2.60;;
27265;SDS011;14766;51.380;13.762;2024-01-16T02:51:44;5.45;;;2.75;;
27265;SDS011;14766;51.380;13.762;2024-01-16T02:54:11;7.80;;;2.85;;
27265;SDS011;14766;51.380;13.762;2024-01-16T02:56:40;5.30;;;2.58;;
27265;SDS011;14766;51.380;13.762;2024-01-16T02:59:11;6.30;;;2.85;;
27265;SDS011;14766;51.380;13.762;2024-01-16T03:01:41;4.93;;;2.83;;
27265;SDS011;14766;51.380;13.762;2024-01-16T03:04:08;4.13;;;2.22;;
27265;SDS011;14766;51.380;13.762;2024-01-16T03:06:35;5.60;;;2.95;;
27265;SDS011;14766;51.380;13.762;2024-01-16T03:09:03;4.25;;;2.60;;
27265;SDS011;14766;51.380;13.762;2024-01-16T03:11:31;3.67;;;2.17;;
27265;SDS011;14766;51.380;13.762;2024-01-16T03:13:59;4.07;;;2.42;;
27265;SDS011;14766;51.380;13.762;2024-01-16T03:16:27;2.72;;;1.95;;
27265;SDS011;14766;51.380;13.762;2024-01-16T03:18:57;5.38;;;2.17;;
27265;SDS011;14766;51.380;13.762;2024-01-16T03:21:24;5.28;;;2.30;;
27265;SDS011;14766;51.380;13.762;2024-01-16T03:23:51;3.53;;;2.20;;
27265;SDS011;14766;51.380;13.762;2024-01-16T03:26:18;6.38;;;2.17;;
27265;SDS011;14766;51.380;13.762;2024-01-16T03:28:45;4.75;;;1.98;;
27265;SDS011;14766;51.380;13.762;2024-01-16T03:31:13;2.80;;;2.13;;
27265;SDS011;14766;51.380;13.762;2024-01-16T03:33:40;3.40;;;2.20;;
27265;SDS011;14766;51.380;13.762;2024-01-16T03:36:10;3.47;;;1.77;;
27265;SDS011;14766;51.380;13.762;2024-01-16T03:38:39;5.28;;;1.70;;
27265;SDS011;14766;51.380;13.762;2024-01-16T03:41:10;4.07;;;2.00;;
27265;SDS011;14766;51.380;13.762;2024-01-16T03:43:39;3.72;;;1.75;;
27265;SDS011;14766;51.380;13.762;2024-01-16T03:46:06;3.53;;;1.80;;
27265;SDS011;14766;51.380;13.762;2024-01-16T03:48:34;3.25;;;1.83;;
27265;SDS011;14766;51.380;13.762;2024-01-16T03:51:01;3.05;;;1.27;;
27265;SDS011;14766;51.380;13.762;2024-01-16T03:53:29;3.00;;;1.63;;
27265;SDS011;14766;51.380;13.762;2024-01-16T03:55:59;3.38;;;1.65;;
27265;SDS011;14766;51.380;13.762;2024-01-16T03:58:26;6.18;;;1.58;;
27265;SDS011;14766;51.380;13.762;2024-01-16T04:00:53;4.10;;;1.30;;
27265;SDS011;14766;51.380;13.762;2024-01-16T04:03:23;2.60;;;1.50;;
27265;SDS011;14766;51.380;13.762;2024-01-16T04:05:50;4.30;;;1.50;;
27265;SDS011;14766;51.380;13.762;2024-01-16T04:08:19;2.25;;;1.20;;
27265;SDS011;14766;51.380;13.762;2024-01-16T04:10:46;4.45;;;1.50;;
27265;SDS011;14766;51.380;13.762;2024-01-16T04:13:13;7.25;;;1.92;;
27265;SDS011;14766;51.380;13.762;2024-01-16T04:15:40;5.13;;;2.25;;
27265;SDS011;14766;51.380;13.762;2024-01-16T04:18:07;6.35;;;2.10;;
27265;SDS011;14766;51.380;13.762;2024-01-16T04:20:34;4.28;;;1.63;;
27265;SDS011;14766;51.380;13.762;2024-01-16T04:23:04;3.85;;;1.20;;
27265;SDS011;14766;51.380;13.762;2024-01-16T04:25:31;4.55;;;1.58;;
27265;SDS011;14766;51.380;13.762;2024-01-16T04:27:58;2.35;;;1.38;;
27265;SDS011;14766;51.380;13.762;2024-01-16T04:30:28;3.60;;;1.50;;
27265;SDS011;14766;51.380;13.762;2024-01-16T04:32:56;2.10;;;1.25;;
27265;SDS011;14766;51.380;13.762;2024-01-16T04:35:23;3.45;;;1.52;;
27265;SDS011;14766;51.380;13.762;2024-01-16T04:37:50;1.98;;;1.20;;
27265;SDS011;14766;51.380;13.762;2024-01-16T04:40:18;3.50;;;1.30;;
27265;SDS011;14766;51.380;13.762;2024-01-16T04:42:45;3.25;;;1.23;;
27265;SDS011;14766;51.380;13.762;2024-01-16T04:45:12;3.40;;;1.23;;
27265;SDS011;14766;51.380;13.762;2024-01-16T04:47:39;4.45;;;1.30;;
27265;SDS011;14766;51.380;13.762;2024-01-16T04:50:07;5.82;;;1.42;;
27265;SDS011;14766;51.380;13.762;2024-01-16T04:52:34;4.50;;;1.73;;
27265;SDS011;14766;51.380;13.762;2024-01-16T04:55:03;4.03;;;1.65;;
27265;SDS011;14766;51.380;13.762;2024-01-16T04:57:30;3.25;;;2.03;;
27265;SDS011;14766;51.380;13.762;2024-01-16T04:59:57;4.55;;;1.83;;
27265;SDS011;14766;51.380;13.762;2024-01-16T05:02:25;2.70;;;1.73;;
27265;SDS011;14766;51.380;13.762;2024-01-16T05:04:52;4.25;;;1.90;;
27265;SDS011;14766;51.380;13.762;2024-01-16T05:07:19;4.97;;;1.90;;
27265;SDS011;14766;51.380;13.762;2024-01-16T05:09:49;4.43;;;1.63;;
27265;SDS011;14766;51.380;13.762;2024-01-16T05:12:16;4.35;;;1.95;;
27265;SDS011;14766;51.380;13.762;2024-01-16T05:14:43;3.85;;;1.65;;
27265;SDS011;14766;51.380;13.762;2024-01-16T05:17:10;2.95;;;1.52;;
27265;SDS011;14766;51.380;13.762;2024-01-16T05:19:39;4.25;;;1.92;;
27265;SDS011;14766;51.380;13.762;2024-01-16T05:22:06;2.53;;;1.65;;
27265;SDS011;14766;51.380;13.762;2024-01-16T05:24:38;3.40;;;1.63;;
27265;SDS011;14766;51.380;13.762;2024-01-16T05:27:05;3.53;;;1.80;;
27265;SDS011;14766;51.380;13.762;2024-01-16T05:29:33;4.80;;;2.00;;
27265;SDS011;14766;51.380;13.762;2024-01-16T05:32:10;4.05;;;1.67;;
27265;SDS011;14766;51.380;13.762;2024-01-16T05:34:39;3.03;;;1.75;;
27265;SDS011;14766;51.380;13.762;2024-01-16T05:37:07;3.95;;;1.80;;
27265;SDS011;14766;51.380;13.762;2024-01-16T05:39:34;4.18;;;2.20;;
27265;SDS011;14766;51.380;13.762;2024-01-16T05:42:01;3.42;;;1.55;;
27265;SDS011;14766;51.380;13.762;2024-01-16T05:44:29;2.45;;;1.42;;
27265;SDS011;14766;51.380;13.762;2024-01-16T05:46:56;3.33;;;1.50;;
27265;SDS011;14766;51.380;13.762;2024-01-16T05:49:23;5.63;;;1.83;;
27265;SDS011;14766;51.380;13.762;2024-01-16T05:51:51;4.22;;;1.60;;
27265;SDS011;14766;51.380;13.762;2024-01-16T05:54:18;2.25;;;1.63;;
27265;SDS011;14766;51.380;13.762;2024-01-16T05:56:45;4.10;;;1.30;;
27265;SDS011;14766;51.380;13.762;2024-01-16T05:59:12;1.52;;;1.00;;
27265;SDS011;14766;51.380;13.762;2024-01-16T06:01:41;2.47;;;1.25;;
27265;SDS011;14766;51.380;13.762;2024-01-16T06:04:09;2.25;;;1.13;;
27265;SDS011;14766;51.380;13.762;2024-01-16T06:06:40;3.83;;;1.20;;
27265;SDS011;14766;51.380;13.762;2024-01-16T06:09:12;4.05;;;2.30;;
27265;SDS011;14766;51.380;13.762;2024-01-16T06:11:41;4.60;;;1.40;;
27265;SDS011;14766;51.380;13.762;2024-01-16T06:14:09;7.10;;;1.83;;
27265;SDS011;14766;51.380;13.762;2024-01-16T06:16:36;4.95;;;1.70;;
27265;SDS011;14766;51.380;13.762;2024-01-16T06:19:03;3.65;;;1.42;;
27265;SDS011;14766;51.380;13.762;2024-01-16T06:21:32;6.28;;;1.92;;
27265;SDS011;14766;51.380;13.762;2024-01-16T06:24:00;4.38;;;2.03;;
27265;SDS011;14766;51.380;13.762;2024-01-16T06:26:27;4.13;;;1.92;;
27265;SDS011;14766;51.380;13.762;2024-01-16T06:28:58;4.10;;;1.77;;
27265;SDS011;14766;51.380;13.762;2024-01-16T06:31:26;4.38;;;1.73;;
27265;SDS011;14766;51.380;13.762;2024-01-16T06:33:53;3.58;;;1.88;;
27265;SDS011;14766;51.380;13.762;2024-01-16T06:36:23;4.53;;;1.83;;
27265;SDS011;14766;51.380;13.762;2024-01-16T06:38:54;4.40;;;1.75;;
27265;SDS011;14766;51.380;13.762;2024-01-16T06:41:21;4.72;;;1.50;;
27265;SDS011;14766;51.380;13.762;2024-01-16T06:43:48;3.30;;;1.70;;
27265;SDS011;14766;51.380;13.762;2024-01-16T06:46:15;5.00;;;1.80;;
27265;SDS011;14766;51.380;13.762;2024-01-16T06:48:42;4.55;;;1.75;;
27265;SDS011;14766;51.380;13.762;2024-01-16T06:51:10;7.55;;;2.10;;
27265;SDS011;14766;51.380;13.762;2024-01-16T06:53:40;4.85;;;1.77;;
27265;SDS011;14766;51.380;13.762;2024-01-16T06:56:07;6.15;;;1.80;;
27265;SDS011;14766;51.380;13.762;2024-01-16T06:58:36;3.10;;;1.67;;
27265;SDS011;14766;51.380;13.762;2024-01-16T07:01:06;3.78;;;1.58;;
27265;SDS011;14766;51.380;13.762;2024-01-16T07:03:35;7.63;;;2.10;;
27265;SDS011;14766;51.380;13.762;2024-01-16T07:06:02;6.72;;;1.80;;
27265;SDS011;14766;51.380;13.762;2024-01-16T07:08:30;5.25;;;1.90;;
27265;SDS011;14766;51.380;13.762;2024-01-16T07:10:57;3.75;;;1.95;;
27265;SDS011;14766;51.380;13.762;2024-01-16T07:13:24;6.65;;;2.30;;
27265;SDS011;14766;51.380;13.762;2024-01-16T07:15:51;8.25;;;2.13;;
27265;SDS011;14766;51.380;13.762;2024-01-16T07:18:18;4.47;;;2.13;;
27265;SDS011;14766;51.380;13.762;2024-01-16T07:20:48;3.97;;;2.05;;
27265;SDS011;14766;51.380;13.762;2024-01-16T07:23:16;6.28;;;2.20;;
27265;SDS011;14766;51.380;13.762;2024-01-16T07:25:43;5.68;;;2.50;;
27265;SDS011;14766;51.380;13.762;2024-01-16T07:28:11;4.63;;;2.28;;
27265;SDS011;14766;51.380;13.762;2024-01-16T07:30:38;5.05;;;2.28;;
27265;SDS011;14766;51.380;13.762;2024-01-16T07:33:07;4.88;;;2.10;;
27265;SDS011;14766;51.380;13.762;2024-01-16T07:35:34;4.75;;;2.05;;
27265;SDS011;14766;51.380;13.762;2024-01-16T07:38:01;5.43;;;2.22;;
27265;SDS011;14766;51.380;13.762;2024-01-16T07:40:31;5.57;;;2.30;;
27265;SDS011;14766;51.380;13.762;2024-01-16T07:42:58;7.95;;;2.80;;
27265;SDS011;14766;51.380;13.762;2024-01-16T07:45:25;7.95;;;2.60;;
27265;SDS011;14766;51.380;13.762;2024-01-16T07:47:52;4.93;;;2.55;;
27265;SDS011;14766;51.380;13.762;2024-01-16T07:50:19;4.40;;;2.70;;
27265;SDS011;14766;51.380;13.762;2024-01-16T07:52:46;15.80;;;8.00;;
27265;SDS011;14766;51.380;13.762;2024-01-16T07:55:13;8.55;;;3.90;;
27265;SDS011;14766;51.380;13.762;2024-01-16T07:57:41;6.72;;;2.40;;
27265;SDS011;14766;51.380;13.762;2024-01-16T08:00:08;5.35;;;2.35;;
27265;SDS011;14766;51.380;13.762;2024-01-16T08:02:38;5.43;;;2.45;;
27265;SDS011;14766;51.380;13.762;2024-01-16T08:05:06;7.70;;;3.03;;
27265;SDS011;14766;51.380;13.762;2024-01-16T08:07:33;12.05;;;3.60;;
27265;SDS011;14766;51.380;13.762;2024-01-16T08:10:01;5.88;;;2.30;;
27265;SDS011;14766;51.380;13.762;2024-01-16T08:12:28;5.65;;;2.35;;
27265;SDS011;14766;51.380;13.762;2024-01-16T08:14:55;5.10;;;2.22;;
27265;SDS011;14766;51.380;13.762;2024-01-16T08:17:22;7.47;;;2.30;;
27265;SDS011;14766;51.380;13.762;2024-01-16T08:19:50;4.40;;;1.90;;
27265;SDS011;14766;51.380;13.762;2024-01-16T08:22:17;4.00;;;1.83;;
27265;SDS011;14766;51.380;13.762;2024-01-16T08:24:44;5.95;;;2.33;;
27265;SDS011;14766;51.380;13.762;2024-01-16T08:27:11;5.13;;;2.72;;
27265;SDS011;14766;51.380;13.762;2024-01-16T08:29:38;8.52;;;3.17;;
27265;SDS011;14766;51.380;13.762;2024-01-16T08:32:06;8.10;;;2.83;;
27265;SDS011;14766;51.380;13.762;2024-01-16T08:34:33;5.03;;;2.22;;
27265;SDS011;14766;51.380;13.762;2024-01-16T08:37:00;7.10;;;2.22;;
27265;SDS011;14766;51.380;13.762;2024-01-16T08:39:27;6.72;;;1.52;;
27265;SDS011;14766;51.380;13.762;2024-01-16T08:41:59;4.20;;;1.65;;
27265;SDS011;14766;51.380;13.762;2024-01-16T08:44:31;6.50;;;2.38;;
27265;SDS011;14766;51.380;13.762;2024-01-16T08:46:58;7.82;;;3.08;;
27265;SDS011;14766;51.380;13.762;2024-01-16T08:49:26;9.75;;;2.95;;
27265;SDS011;14766;51.380;13.762;2024-01-16T08:51:54;6.85;;;3.28;;
27265;SDS011;14766;51.380;13.762;2024-01-16T08:54:23;6.13;;;2.80;;
27265;SDS011;14766;51.380;13.762;2024-01-16T08:56:51;7.20;;;3.00;;
27265;SDS011;14766;51.380;13.762;2024-01-16T08:59:18;6.53;;;3.00;;
27265;SDS011;14766;51.380;13.762;2024-01-16T09:01:46;8.52;;;3.40;;
27265;SDS011;14766;51.380;13.762;2024-01-16T09:04:13;9.00;;;4.15;;
27265;SDS011;14766;51.380;13.762;2024-01-16T09:06:40;14.68;;;6.47;;
27265;SDS011;14766;51.380;13.762;2024-01-16T09:09:07;13.98;;;6.60;;
27265;SDS011;14766;51.380;13.762;2024-01-16T09:11:35;16.00;;;5.85;;
27265;SDS011;14766;51.380;13.762;2024-01-16T09:14:02;14.93;;;7.00;;
27265;SDS011;14766;51.380;13.762;2024-01-16T09:16:33;8.65;;;4.40;;
27265;SDS011;14766;51.380;13.762;2024-01-16T09:19:00;5.95;;;3.30;;
27265;SDS011;14766;51.380;13.762;2024-01-16T09:21:27;9.40;;;2.83;;
27265;SDS011;14766;51.380;13.762;2024-01-16T09:23:55;8.88;;;3.10;;
27265;SDS011;14766;51.380;13.762;2024-01-16T09:26:22;6.60;;;3.17;;
27265;SDS011;14766;51.380;13.762;2024-01-16T09:28:49;6.40;;;3.38;;
27265;SDS011;14766;51.380;13.762;2024-01-16T09:31:16;6.35;;;2.95;;
27265;SDS011;14766;51.380;13.762;2024-01-16T09:33:43;6.82;;;2.88;;
27265;SDS011;14766;51.380;13.762;2024-01-16T09:36:10;7.18;;;2.90;;
27265;SDS011;14766;51.380;13.762;2024-01-16T09:38:41;5.47;;;2.75;;
27265;SDS011;14766;51.380;13.762;2024-01-16T09:41:10;6.25;;;3.05;;
27265;SDS011;14766;51.380;13.762;2024-01-16T09:43:40;7.53;;;2.72;;
27265;SDS011;14766;51.380;13.762;2024-01-16T09:46:09;6.53;;;2.70;;
27265;SDS011;14766;51.380;13.762;2024-01-16T09:48:38;7.45;;;3.20;;
27265;SDS011;14766;51.380;13.762;2024-01-16T09:51:07;11.85;;;4.70;;
27265;SDS011;14766;51.380;13.762;2024-01-16T09:53:36;12.65;;;4.93;;
27265;SDS011;14766;51.380;13.762;2024-01-16T09:56:04;13.23;;;5.65;;
27265;SDS011;14766;51.380;13.762;2024-01-16T09:58:37;10.07;;;3.90;;
27265;SDS011;14766;51.380;13.762;2024-01-16T10:01:08;12.43;;;4.45;;
27265;SDS011;14766;51.380;13.762;2024-01-16T10:03:35;4.93;;;3.15;;
27265;SDS011;14766;51.380;13.762;2024-01-16T10:06:06;11.63;;;4.65;;
27265;SDS011;14766;51.380;13.762;2024-01-16T10:08:35;8.60;;;3.65;;
27265;SDS011;14766;51.380;13.762;2024-01-16T10:11:03;11.00;;;3.60;;
27265;SDS011;14766;51.380;13.762;2024-01-16T10:13:31;6.15;;;3.03;;
27265;SDS011;14766;51.380;13.762;2024-01-16T10:16:00;6.38;;;2.42;;
27265;SDS011;14766;51.380;13.762;2024-01-16T10:18:28;6.32;;;2.67;;
27265;SDS011;14766;51.380;13.762;2024-01-16T10:21:04;4.65;;;2.40;;
27265;SDS011;14766;51.380;13.762;2024-01-16T10:23:35;6.43;;;2.47;;
27265;SDS011;14766;51.380;13.762;2024-01-16T10:28:37;7.40;;;3.35;;
27265;SDS011;14766;51.380;13.762;2024-01-16T10:31:09;6.80;;;3.30;;
27265;SDS011;14766;51.380;13.762;2024-01-16T10:33:38;7.35;;;3.17;;
27265;SDS011;14766;51.380;13.762;2024-01-16T10:38:42;6.43;;;2.85;;
27265;SDS011;14766;51.380;13.762;2024-01-16T10:41:14;7.32;;;2.75;;
27265;SDS011;14766;51.380;13.762;2024-01-16T10:43:44;10.20;;;3.50;;
27265;SDS011;14766;51.380;13.762;2024-01-16T10:46:15;7.18;;;3.22;;
27265;SDS011;14766;51.380;13.762;2024-01-16T10:48:44;6.88;;;2.92;;
27265;SDS011;14766;51.380;13.762;2024-01-16T10:51:26;7.00;;;3.45;;
27265;SDS011;14766;51.380;13.762;2024-01-16T10:53:58;5.90;;;3.22;;
27265;SDS011;14766;51.380;13.762;2024-01-16T10:56:29;6.60;;;3.17;;
27265;SDS011;14766;51.380;13.762;2024-01-16T10:59:06;8.10;;;3.45;;
27265;SDS011;14766;51.380;13.762;2024-01-16T11:02:01;12.13;;;3.75;;
27265;SDS011;14766;51.380;13.762;2024-01-16T11:04:30;4.53;;;2.40;;
27265;SDS011;14766;51.380;13.762;2024-01-16T11:07:01;6.35;;;2.97;;
27265;SDS011;14766;51.380;13.762;2024-01-16T11:09:31;8.05;;;3.50;;
27265;SDS011;14766;51.380;13.762;2024-01-16T11:11:58;9.27;;;4.05;;
27265;SDS011;14766;51.380;13.762;2024-01-16T11:14:26;5.72;;;3.42;;
27265;SDS011;14766;51.380;13.762;2024-01-16T11:16:55;5.72;;;2.60;;
27265;SDS011;14766;51.380;13.762;2024-01-16T11:19:24;4.65;;;3.15;;
27265;SDS011;14766;51.380;13.762;2024-01-16T11:22:12;8.23;;;2.63;;
27265;SDS011;14766;51.380;13.762;2024-01-16T11:24:41;6.68;;;3.60;;
27265;SDS011;14766;51.380;13.762;2024-01-16T11:27:09;7.75;;;4.57;;
27265;SDS011;14766;51.380;13.762;2024-01-16T11:29:51;8.88;;;4.47;;
27265;SDS011;14766;51.380;13.762;2024-01-16T11:32:32;13.38;;;6.50;;
27265;SDS011;14766;51.380;13.762;2024-01-16T11:35:06;10.05;;;4.28;;
27265;SDS011;14766;51.380;13.762;2024-01-16T11:37:35;10.13;;;4.00;;
27265;SDS011;14766;51.380;13.762;2024-01-16T11:42:54;7.00;;;3.80;;
27265;SDS011;14766;51.380;13.762;2024-01-16T11:48:09;6.68;;;2.63;;
27265;SDS011;14766;51.380;13.762;2024-01-16T11:50:40;7.53;;;3.53;;
27265;SDS011;14766;51.380;13.762;2024-01-16T11:53:08;9.00;;;3.00;;
27265;SDS011;14766;51.380;13.762;2024-01-16T11:55:45;9.93;;;3.70;;
27265;SDS011;14766;51.380;13.762;2024-01-16T12:01:33;5.63;;;2.70;;
27265;SDS011;14766;51.380;13.762;2024-01-16T12:04:05;5.15;;;2.72;;
27265;SDS011;14766;51.380;13.762;2024-01-16T12:06:36;8.80;;;3.05;;
27265;SDS011;14766;51.380;13.762;2024-01-16T12:11:44;8.88;;;4.00;;
27265;SDS011;14766;51.380;13.762;2024-01-16T12:14:23;8.68;;;3.67;;
27265;SDS011;14766;51.380;13.762;2024-01-16T12:16:51;6.63;;;2.97;;
27265;SDS011;14766;51.380;13.762;2024-01-16T12:19:18;8.10;;;3.55;;
27265;SDS011;14766;51.380;13.762;2024-01-16T12:21:45;13.05;;;4.18;;
27265;SDS011;14766;51.380;13.762;2024-01-16T12:24:13;8.50;;;3.30;;
27265;SDS011;14766;51.380;13.762;2024-01-16T12:26:44;6.80;;;3.20;;
27265;SDS011;14766;51.380;13.762;2024-01-16T12:29:11;9.48;;;4.07;;
27265;SDS011;14766;51.380;13.762;2024-01-16T12:31:40;10.88;;;4.47;;
27265;SDS011;14766;51.380;13.762;2024-01-16T12:34:08;7.43;;;3.30;;
27265;SDS011;14766;51.380;13.762;2024-01-16T12:36:36;9.75;;;3.08;;
27265;SDS011;14766;51.380;13.762;2024-01-16T12:39:09;4.85;;;2.92;;
27265;SDS011;14766;51.380;13.762;2024-01-16T12:41:42;5.63;;;2.60;;
27265;SDS011;14766;51.380;13.762;2024-01-16T12:44:12;6.65;;;2.70;;
27265;SDS011;14766;51.380;13.762;2024-01-16T12:46:44;11.85;;;3.53;;
27265;SDS011;14766;51.380;13.762;2024-01-16T12:49:20;7.60;;;3.22;;
27265;SDS011;14766;51.380;13.762;2024-01-16T12:51:47;4.82;;;2.70;;
27265;SDS011;14766;51.380;13.762;2024-01-16T12:54:16;4.22;;;2.67;;
27265;SDS011;14766;51.380;13.762;2024-01-16T12:56:45;5.45;;;2.72;;
27265;SDS011;14766;51.380;13.762;2024-01-16T12:59:14;7.25;;;2.70;;
27265;SDS011;14766;51.380;13.762;2024-01-16T13:01:41;7.25;;;2.65;;
27265;SDS011;14766;51.380;13.762;2024-01-16T13:04:10;6.63;;;2.90;;
27265;SDS011;14766;51.380;13.762;2024-01-16T13:06:45;5.43;;;2.78;;
27265;SDS011;14766;51.380;13.762;2024-01-16T13:09:14;6.45;;;2.80;;
27265;SDS011;14766;51.380;13.762;2024-01-16T13:14:22;8.48;;;5.03;;
27265;SDS011;14766;51.380;13.762;2024-01-16T13:16:50;7.60;;;3.60;;
27265;SDS011;14766;51.380;13.762;2024-01-16T13:19:22;6.85;;;3.63;;
27265;SDS011;14766;51.380;13.762;2024-01-16T13:21:50;9.15;;;3.72;;
27265;SDS011;14766;51.380;13.762;2024-01-16T13:24:19;5.45;;;3.28;;
27265;SDS011;14766;51.380;13.762;2024-01-16T13:26:49;5.95;;;3.08;;
27265;SDS011;14766;51.380;13.762;2024-01-16T13:29:17;4.78;;;2.65;;
27265;SDS011;14766;51.380;13.762;2024-01-16T13:31:46;4.80;;;2.78;;
27265;SDS011;14766;51.380;13.762;2024-01-16T13:34:14;4.53;;;2.60;;
27265;SDS011;14766;51.380;13.762;2024-01-16T13:36:45;5.75;;;2.90;;
27265;SDS011;14766;51.380;13.762;2024-01-16T13:39:32;6.50;;;3.00;;
27265;SDS011;14766;51.380;13.762;2024-01-16T13:42:07;7.00;;;3.30;;
27265;SDS011;14766;51.380;13.762;2024-01-16T13:44:34;6.38;;;3.45;;
27265;SDS011;14766;51.380;13.762;2024-01-16T13:47:01;7.47;;;2.85;;
27265;SDS011;14766;51.380;13.762;2024-01-16T13:49:36;6.95;;;3.05;;
27265;SDS011;14766;51.380;13.762;2024-01-16T13:52:07;6.53;;;3.55;;
27265;SDS011;14766;51.380;13.762;2024-01-16T13:54:36;7.65;;;3.22;;
27265;SDS011;14766;51.380;13.762;2024-01-16T13:57:05;4.47;;;2.80;;
27265;SDS011;14766;51.380;13.762;2024-01-16T13:59:35;5.65;;;3.20;;
27265;SDS011;14766;51.380;13.762;2024-01-16T14:02:03;8.65;;;2.95;;
27265;SDS011;14766;51.380;13.762;2024-01-16T14:04:36;8.68;;;3.03;;
27265;SDS011;14766;51.380;13.762;2024-01-16T14:07:03;6.68;;;2.60;;
27265;SDS011;14766;51.380;13.762;2024-01-16T14:09:40;5.70;;;2.70;;
27265;SDS011;14766;51.380;13.762;2024-01-16T14:12:12;6.70;;;3.03;;
27265;SDS011;14766;51.380;13.762;2024-01-16T14:14:42;4.95;;;2.67;;
27265;SDS011;14766;51.380;13.762;2024-01-16T14:17:11;5.82;;;2.67;;
27265;SDS011;14766;51.380;13.762;2024-01-16T14:19:38;7.10;;;2.55;;
27265;SDS011;14766;51.380;13.762;2024-01-16T14:22:05;7.82;;;3.20;;
27265;SDS011;14766;51.380;13.762;2024-01-16T14:24:33;6.32;;;2.88;;
27265;SDS011;14766;51.380;13.762;2024-01-16T14:27:05;4.10;;;2.90;;
27265;SDS011;14766;51.380;13.762;2024-01-16T14:29:36;7.60;;;3.80;;
27265;SDS011;14766;51.380;13.762;2024-01-16T14:32:04;8.20;;;4.28;;
27265;SDS011;14766;51.380;13.762;2024-01-16T14:34:32;4.70;;;3.17;;
27265;SDS011;14766;51.380;13.762;2024-01-16T14:36:59;7.72;;;4.40;;
27265;SDS011;14766;51.380;13.762;2024-01-16T14:39:27;5.90;;;4.30;;
27265;SDS011;14766;51.380;13.762;2024-01-16T14:41:57;11.77;;;3.90;;
27265;SDS011;14766;51.380;13.762;2024-01-16T14:44:27;7.50;;;3.60;;
27265;SDS011;14766;51.380;13.762;2024-01-16T14:46:58;4.88;;;3.17;;
27265;SDS011;14766;51.380;13.762;2024-01-16T14:49:25;6.20;;;2.85;;
27265;SDS011;14766;51.380;13.762;2024-01-16T14:51:58;6.13;;;2.95;;
27265;SDS011;14766;51.380;13.762;2024-01-16T14:54:25;7.72;;;3.47;;
27265;SDS011;14766;51.380;13.762;2024-01-16T14:56:53;6.85;;;3.60;;
27265;SDS011;14766;51.380;13.762;2024-01-16T14:59:23;7.97;;;3.95;;
27265;SDS011;14766;51.380;13.762;2024-01-16T15:01:52;9.32;;;3.65;;